Time;durP1;ratioP1;P1;durP2;ratioP2;P2;SDS_P1;SDS_P2;PMS_P1;PMS_P2;Temp;Humidity;BMP_temperature;BMP_pressure;BME280_temperature;BME280_humidity;BME280_pressure;Samples;Min_cycle;Max_cycle;Signal;HPM_P1;HPM_P2
2023/04/20 00:00:26;;;;;;;24.17;21.85;;;;;;;;;;4937554;29;20022;-82
2023/04/20 00:02:52;;;;;;;23.90;21.60;;;;;;;;;;4937793;29;20537;-82
2023/04/20 00:05:18;;;;;;;23.70;21.35;;;;;;;;;;4938094;29;20020;-83
2023/04/20 00:07:43;;;;;;;23.63;21.42;;;;;;;;;;4937968;29;20063;-82
2023/04/20 00:10:09;;;;;;;22.75;20.55;;;;;;;;;;4937478;29;20020;-81
2023/04/20 00:12:34;;;;;;;22.88;20.38;;;;;;;;;;4937322;29;20099;-82
2023/04/20 00:15:00;;;;;;;25.27;22.80;;;;;;;;;;4937955;29;20145;-82
2023/04/20 00:17:25;;;;;;;26.27;23.35;;;;;;;;;;4934956;29;20024;-79
2023/04/20 00:19:51;;;;;;;23.85;21.45;;;;;;;;;;4924474;29;20100;-82
2023/04/20 00:22:16;;;;;;;24.60;22.08;;;;;;;;;;4937009;29;20080;-81
2023/04/20 00:24:42;;;;;;;25.90;23.35;;;;;;;;;;4936939;29;20035;-82
2023/04/20 00:27:07;;;;;;;22.75;20.58;;;;;;;;;;4932890;29;20021;-82
2023/04/20 00:29:34;;;;;;;25.23;22.83;;;;;;;;;;4937303;29;20016;-82
2023/04/20 00:32:00;;;;;;;25.02;22.33;;;;;;;;;;4924391;29;20028;-80
2023/04/20 00:34:25;;;;;;;29.02;24.13;;;;;;;;;;4920572;29;20012;-80
2023/04/20 00:36:50;;;;;;;27.25;24.55;;;;;;;;;;4915023;29;20049;-80
2023/04/20 00:39:16;;;;;;;28.20;25.40;;;;;;;;;;4919387;29;20068;-79
2023/04/20 00:41:41;;;;;;;28.60;25.63;;;;;;;;;;4905970;29;20032;-79
2023/04/20 00:44:07;;;;;;;29.08;26.05;;;;;;;;;;4913755;29;20028;-79
2023/04/20 00:46:32;;;;;;;28.70;25.83;;;;;;;;;;4913075;29;20020;-79
2023/04/20 00:48:58;;;;;;;29.17;24.63;;;;;;;;;;4918075;29;20055;-79
2023/04/20 00:51:24;;;;;;;29.88;26.50;;;;;;;;;;4907828;29;20043;-79
2023/04/20 00:53:50;;;;;;;28.15;25.20;;;;;;;;;;4933206;29;20425;-79
2023/04/20 00:56:15;;;;;;;26.60;24.00;;;;;;;;;;4917053;29;20038;-79
2023/04/20 00:58:41;;;;;;;30.55;26.17;;;;;;;;;;4931751;29;20033;-79
2023/04/20 01:01:07;;;;;;;27.40;24.67;;;;;;;;;;4932228;29;20024;-79
2023/04/20 01:03:33;;;;;;;29.20;26.08;;;;;;;;;;4930102;29;20473;-78
2023/04/20 01:05:58;;;;;;;25.10;22.63;;;;;;;;;;4929938;29;20425;-78
2023/04/20 01:08:26;;;;;;;26.65;23.95;;;;;;;;;;4931110;29;20075;-79
2023/04/20 01:10:52;;;;;;;29.23;26.15;;;;;;;;;;4919169;29;20387;-78
2023/04/20 01:13:18;;;;;;;27.88;25.17;;;;;;;;;;4924387;29;20044;-79
2023/04/20 01:15:43;;;;;;;26.27;23.55;;;;;;;;;;4932334;29;20106;-79
2023/04/20 01:18:08;;;;;;;28.95;24.98;;;;;;;;;;4931916;29;20027;-79
2023/04/20 01:20:33;;;;;;;31.42;27.88;;;;;;;;;;4914805;29;20031;-79
2023/04/20 01:22:59;;;;;;;28.70;25.67;;;;;;;;;;4915841;29;20024;-80
2023/04/20 01:25:24;;;;;;;27.65;23.70;;;;;;;;;;4917323;29;20020;-79
2023/04/20 01:27:50;;;;;;;26.90;24.23;;;;;;;;;;4934762;29;20019;-79
2023/04/20 01:30:16;;;;;;;26.88;24.05;;;;;;;;;;4917454;29;20108;-80
2023/04/20 01:32:41;;;;;;;27.27;24.48;;;;;;;;;;4937750;29;20048;-80
2023/04/20 01:35:07;;;;;;;27.90;24.05;;;;;;;;;;4934614;29;20028;-79
2023/04/20 01:37:32;;;;;;;26.55;23.33;;;;;;;;;;4935672;29;20031;-80
2023/04/20 01:39:57;;;;;;;26.75;23.92;;;;;;;;;;4938762;29;20167;-79
2023/04/20 01:42:23;;;;;;;28.20;23.90;;;;;;;;;;4908742;29;20820;-80
2023/04/20 01:44:48;;;;;;;27.30;24.35;;;;;;;;;;4914358;29;20464;-79
2023/04/20 01:47:13;;;;;;;35.15;27.65;;;;;;;;;;4906834;29;20024;-80
2023/04/20 01:49:39;;;;;;;28.55;25.50;;;;;;;;;;4931675;29;20593;-79
2023/04/20 01:52:05;;;;;;;28.63;25.38;;;;;;;;;;4930440;29;20099;-79
2023/04/20 01:54:30;;;;;;;27.30;24.33;;;;;;;;;;4929503;29;20180;-78
2023/04/20 01:56:56;;;;;;;27.15;24.38;;;;;;;;;;4929598;29;20512;-79
2023/04/20 01:59:22;;;;;;;28.65;25.65;;;;;;;;;;4929307;29;20024;-79
2023/04/20 02:01:47;;;;;;;26.98;23.63;;;;;;;;;;4929331;29;20166;-78
2023/04/20 02:04:12;;;;;;;33.92;25.98;;;;;;;;;;4930178;29;20027;-79
2023/04/20 02:06:38;;;;;;;26.08;23.40;;;;;;;;;;4930541;29;20028;-80
2023/04/20 02:09:03;;;;;;;27.13;24.23;;;;;;;;;;4916415;29;20276;-80
2023/04/20 02:11:28;;;;;;;28.73;25.45;;;;;;;;;;4924620;29;20035;-79
2023/04/20 02:13:54;;;;;;;31.73;25.10;;;;;;;;;;4931064;29;20027;-79
2023/04/20 02:16:20;;;;;;;26.08;22.27;;;;;;;;;;4938262;29;20051;-80
2023/04/20 02:18:46;;;;;;;26.40;23.83;;;;;;;;;;4939580;29;20022;-81
2023/04/20 02:21:11;;;;;;;27.27;23.77;;;;;;;;;;4920749;29;20024;-80
2023/04/20 02:23:36;;;;;;;27.05;24.15;;;;;;;;;;4941016;29;20046;-80
2023/04/20 02:26:02;;;;;;;25.02;22.33;;;;;;;;;;4923612;29;20048;-80
2023/04/20 02:28:27;;;;;;;27.58;24.35;;;;;;;;;;4923609;29;20020;-81
2023/04/20 02:30:52;;;;;;;30.90;24.65;;;;;;;;;;4946707;29;20030;-81
2023/04/20 02:33:19;;;;;;;25.55;22.65;;;;;;;;;;4933566;29;20388;-81
2023/04/20 02:35:45;;;;;;;26.40;23.80;;;;;;;;;;4951210;29;20145;-79
2023/04/20 02:38:10;;;;;;;26.92;24.13;;;;;;;;;;4942944;29;20016;-82
2023/04/20 02:40:35;;;;;;;25.33;22.85;;;;;;;;;;4926458;29;20032;-80
2023/04/20 02:43:01;;;;;;;23.85;21.45;;;;;;;;;;4930176;29;20059;-80
2023/04/20 02:45:26;;;;;;;26.13;22.73;;;;;;;;;;4916318;29;20024;-79
2023/04/20 02:47:51;;;;;;;25.30;22.70;;;;;;;;;;4916052;29;20311;-79
2023/04/20 02:50:17;;;;;;;28.43;25.43;;;;;;;;;;4932530;29;20115;-79
2023/04/20 02:52:42;;;;;;;25.75;23.20;;;;;;;;;;4935179;29;20276;-79
2023/04/20 02:55:07;;;;;;;27.47;23.03;;;;;;;;;;4918264;29;20047;-79
2023/04/20 02:57:32;;;;;;;27.95;22.55;;;;;;;;;;4933431;29;20275;-79
2023/04/20 02:59:58;;;;;;;31.88;28.30;;;;;;;;;;4932815;29;20026;-79
2023/04/20 03:02:23;;;;;;;34.90;28.42;;;;;;;;;;4933430;29;20062;-79
2023/04/20 03:04:48;;;;;;;30.93;27.57;;;;;;;;;;4939223;29;20027;-80
2023/04/20 03:07:14;;;;;;;31.27;28.08;;;;;;;;;;4943671;29;20263;-80
2023/04/20 03:09:39;;;;;;;32.05;27.77;;;;;;;;;;4936844;29;20016;-78
2023/04/20 03:12:05;;;;;;;30.25;26.42;;;;;;;;;;4931402;29;20032;-80
2023/04/20 03:14:30;;;;;;;29.25;25.70;;;;;;;;;;4944709;29;20023;-80
2023/04/20 03:16:56;;;;;;;28.42;25.38;;;;;;;;;;4944555;29;20453;-79
2023/04/20 03:19:21;;;;;;;45.65;38.63;;;;;;;;;;4940912;29;20023;-81
2023/04/20 03:21:47;;;;;;;33.45;29.85;;;;;;;;;;4925174;29;20087;-80
2023/04/20 03:24:12;;;;;;;29.38;25.15;;;;;;;;;;4922533;29;20047;-79
2023/04/20 03:26:40;;;;;;;31.33;26.80;;;;;;;;;;4917934;29;20027;-78
2023/04/20 03:29:05;;;;;;;29.15;26.10;;;;;;;;;;4936153;29;20023;-79
2023/04/20 03:31:30;;;;;;;29.58;26.02;;;;;;;;;;4917594;29;20036;-79
2023/04/20 03:33:56;;;;;;;37.60;29.92;;;;;;;;;;4938093;29;20038;-79
2023/04/20 03:36:21;;;;;;;48.45;42.13;;;;;;;;;;4940532;29;20024;-80
2023/04/20 03:38:46;;;;;;;51.88;43.30;;;;;;;;;;4943188;29;20016;-80
2023/04/20 03:41:12;;;;;;;33.10;29.58;;;;;;;;;;4942710;29;20016;-80
2023/04/20 03:43:38;;;;;;;29.30;26.20;;;;;;;;;;4943225;29;20035;-80
2023/04/20 03:46:03;;;;;;;36.90;32.90;;;;;;;;;;4941276;29;20035;-79
2023/04/20 03:48:28;;;;;;;29.33;26.27;;;;;;;;;;4943077;29;20019;-80
2023/04/20 03:50:54;;;;;;;29.40;26.23;;;;;;;;;;4940293;29;20387;-80
2023/04/20 03:53:19;;;;;;;28.55;25.48;;;;;;;;;;4942394;29;20090;-80
2023/04/20 03:55:44;;;;;;;27.25;24.40;;;;;;;;;;4926742;29;20016;-80
2023/04/20 03:58:10;;;;;;;27.92;24.95;;;;;;;;;;4944620;29;20031;-80
2023/04/20 04:00:35;;;;;;;30.05;23.48;;;;;;;;;;4944491;29;20020;-80
2023/04/20 04:03:01;;;;;;;26.38;23.77;;;;;;;;;;4950301;29;20040;-81
2023/04/20 04:05:26;;;;;;;25.95;23.00;;;;;;;;;;4952646;29;20020;-81
2023/04/20 04:07:51;;;;;;;27.80;23.85;;;;;;;;;;4956687;29;20023;-82
2023/04/20 04:10:17;;;;;;;25.48;21.90;;;;;;;;;;4939758;29;20012;-82
2023/04/20 04:12:43;;;;;;;27.40;24.50;;;;;;;;;;4955359;29;20031;-83
2023/04/20 04:15:09;;;;;;;24.92;22.13;;;;;;;;;;4939019;29;20034;-81
2023/04/20 04:17:34;;;;;;;23.50;21.17;;;;;;;;;;4938842;29;20020;-82
2023/04/20 04:19:59;;;;;;;22.50;20.33;;;;;;;;;;4930761;29;20023;-81
2023/04/20 04:22:25;;;;;;;23.40;20.33;;;;;;;;;;4934159;29;20038;-81
2023/04/20 04:24:50;;;;;;;22.98;20.52;;;;;;;;;;4919993;29;20047;-82
2023/04/20 04:27:17;;;;;;;21.50;19.40;;;;;;;;;;4924464;29;20414;-82
2023/04/20 04:29:43;;;;;;;23.30;20.25;;;;;;;;;;4952932;29;20046;-81
2023/04/20 04:32:10;;;;;;;24.98;19.00;;;;;;;;;;4926799;29;20020;-80
2023/04/20 04:34:36;;;;;;;23.20;20.83;;;;;;;;;;4928915;29;20024;-80
2023/04/20 04:37:02;;;;;;;20.88;18.88;;;;;;;;;;4934502;29;20071;-82
2023/04/20 04:39:29;;;;;;;21.38;17.08;;;;;;;;;;4932868;29;20024;-82
2023/04/20 04:41:54;;;;;;;21.10;18.92;;;;;;;;;;4943089;29;20047;-81
2023/04/20 04:44:20;;;;;;;19.73;17.75;;;;;;;;;;4927706;29;20035;-79
2023/04/20 04:46:46;;;;;;;19.77;17.33;;;;;;;;;;4942605;29;20446;-80
2023/04/20 04:49:11;;;;;;;18.85;16.88;;;;;;;;;;4927638;29;20051;-80
2023/04/20 04:51:37;;;;;;;19.17;16.52;;;;;;;;;;4946566;29;20468;-80
2023/04/20 04:54:02;;;;;;;23.00;18.77;;;;;;;;;;4927784;29;20193;-80
2023/04/20 04:56:28;;;;;;;21.50;19.48;;;;;;;;;;4922740;29;20026;-80
2023/04/20 04:58:53;;;;;;;21.45;18.25;;;;;;;;;;4935894;29;20020;-82
2023/04/20 05:01:19;;;;;;;18.45;15.90;;;;;;;;;;4961017;29;20024;-82
2023/04/20 05:03:45;;;;;;;16.45;14.85;;;;;;;;;;4942142;29;20112;-81
2023/04/20 05:06:10;;;;;;;19.05;16.65;;;;;;;;;;4956520;29;20115;-81
2023/04/20 05:08:36;;;;;;;21.75;17.65;;;;;;;;;;4946960;29;20092;-80
2023/04/20 05:11:01;;;;;;;19.98;18.08;;;;;;;;;;4922871;29;20027;-81
2023/04/20 05:13:27;;;;;;;21.58;19.40;;;;;;;;;;4928424;29;20024;-82
2023/04/20 05:15:52;;;;;;;25.15;19.48;;;;;;;;;;4933223;29;20039;-81
2023/04/20 05:18:17;;;;;;;23.83;21.42;;;;;;;;;;4939742;29;20004;-81
2023/04/20 05:20:44;;;;;;;23.48;19.00;;;;;;;;;;4934064;29;20014;-81
2023/04/20 05:23:10;;;;;;;21.92;17.65;;;;;;;;;;4943135;29;20047;-81
2023/04/20 05:25:35;;;;;;;19.77;17.30;;;;;;;;;;4935199;29;20043;-81
2023/04/20 05:28:01;;;;;;;20.52;18.65;;;;;;;;;;4942839;29;20032;-80
2023/04/20 05:30:26;;;;;;;24.45;20.75;;;;;;;;;;4954261;29;20025;-82
2023/04/20 05:32:52;;;;;;;22.42;19.85;;;;;;;;;;4934055;29;20023;-81
2023/04/20 05:35:17;;;;;;;19.75;17.55;;;;;;;;;;4952659;29;20045;-81
2023/04/20 05:37:42;;;;;;;19.98;17.85;;;;;;;;;;4931759;29;20114;-81
2023/04/20 05:40:08;;;;;;;20.67;18.48;;;;;;;;;;4933358;29;20031;-80
2023/04/20 05:42:34;;;;;;;19.15;17.30;;;;;;;;;;4936011;29;20273;-82
2023/04/20 05:44:59;;;;;;;20.42;18.50;;;;;;;;;;4939054;29;20036;-81
2023/04/20 05:47:26;;;;;;;20.35;18.42;;;;;;;;;;4924924;29;20031;-80
2023/04/20 05:49:52;;;;;;;22.48;20.38;;;;;;;;;;4942194;29;20862;-80
2023/04/20 05:52:18;;;;;;;20.60;18.60;;;;;;;;;;4943855;29;20510;-80
2023/04/20 05:54:43;;;;;;;19.92;17.92;;;;;;;;;;4946722;29;20084;-81
2023/04/20 05:57:10;;;;;;;18.35;16.63;;;;;;;;;;4945542;29;20067;-80
2023/04/20 05:59:36;;;;;;;18.77;17.08;;;;;;;;;;4925973;29;20037;-80
2023/04/20 06:02:04;;;;;;;17.98;16.20;;;;;;;;;;4922392;29;20040;-80
2023/04/20 06:04:31;;;;;;;16.73;15.07;;;;;;;;;;4924192;29;20506;-80
2023/04/20 06:06:57;;;;;;;17.52;15.82;;;;;;;;;;4929301;29;20147;-81
2023/04/20 06:09:22;;;;;;;126.15;59.28;;;;;;;;;;4912286;29;20433;-79
2023/04/20 06:11:47;;;;;;;19.17;16.50;;;;;;;;;;4929089;29;20111;-79
2023/04/20 06:14:13;;;;;;;18.55;16.75;;;;;;;;;;4926871;29;20023;-79
2023/04/20 06:16:38;;;;;;;18.13;15.82;;;;;;;;;;4933001;29;20015;-78
2023/04/20 06:19:04;;;;;;;17.33;15.52;;;;;;;;;;4912231;29;20054;-78
2023/04/20 06:21:30;;;;;;;18.27;16.40;;;;;;;;;;4912383;29;20070;-80
2023/04/20 06:23:56;;;;;;;17.20;15.40;;;;;;;;;;4927988;29;20034;-81
2023/04/20 06:26:22;;;;;;;17.98;16.02;;;;;;;;;;4916392;29;20042;-81
2023/04/20 06:28:47;;;;;;;17.75;15.73;;;;;;;;;;4936069;29;20497;-80
2023/04/20 06:31:13;;;;;;;15.07;13.65;;;;;;;;;;4922922;29;20071;-80
2023/04/20 06:33:38;;;;;;;16.83;15.00;;;;;;;;;;4941536;29;20040;-81
2023/04/20 06:36:07;;;;;;;17.02;15.35;;;;;;;;;;4941810;29;20028;-80
2023/04/20 06:38:32;;;;;;;17.58;15.63;;;;;;;;;;4936300;29;20055;-80
2023/04/20 06:41:00;;;;;;;15.43;13.80;;;;;;;;;;4919640;29;20028;-80
2023/04/20 06:43:26;;;;;;;17.33;15.50;;;;;;;;;;4931528;29;20036;-80
2023/04/20 06:45:51;;;;;;;17.55;15.75;;;;;;;;;;4918104;29;20044;-80
2023/04/20 06:48:16;;;;;;;16.00;14.45;;;;;;;;;;4936995;29;20028;-79
2023/04/20 06:50:42;;;;;;;17.02;15.23;;;;;;;;;;4936452;29;20063;-80
2023/04/20 06:53:07;;;;;;;18.35;14.80;;;;;;;;;;4927360;29;20035;-80
2023/04/20 06:55:32;;;;;;;18.15;16.13;;;;;;;;;;4945815;29;20027;-80
2023/04/20 06:57:57;;;;;;;17.35;15.55;;;;;;;;;;4933288;29;20019;-81
2023/04/20 07:00:26;;;;;;;17.77;15.88;;;;;;;;;;4943604;29;20090;-80
2023/04/20 07:02:51;;;;;;;17.52;15.55;;;;;;;;;;4925525;29;20103;-80
2023/04/20 07:05:17;;;;;;;20.00;17.60;;;;;;;;;;4939981;29;20054;-80
2023/04/20 07:07:43;;;;;;;17.50;15.88;;;;;;;;;;4934399;29;20063;-79
2023/04/20 07:10:09;;;;;;;20.35;15.85;;;;;;;;;;4931943;29;20028;-79
2023/04/20 07:12:35;;;;;;;17.85;16.15;;;;;;;;;;4930297;29;20022;-80
2023/04/20 07:15:01;;;;;;;18.80;16.88;;;;;;;;;;4930327;29;20038;-80
2023/04/20 07:17:27;;;;;;;19.02;17.17;;;;;;;;;;4924745;29;20016;-80
2023/04/20 07:19:52;;;;;;;18.20;16.40;;;;;;;;;;4939270;29;20034;-80
2023/04/20 07:22:17;;;;;;;18.38;16.58;;;;;;;;;;4945072;29;20398;-81
2023/04/20 07:24:42;;;;;;;17.40;15.80;;;;;;;;;;4939617;29;20031;-82
2023/04/20 07:27:08;;;;;;;18.83;16.83;;;;;;;;;;4938491;29;20350;-82
2023/04/20 07:29:33;;;;;;;20.13;17.15;;;;;;;;;;4934544;29;20034;-82
2023/04/20 07:31:58;;;;;;;18.38;16.45;;;;;;;;;;4940632;29;20047;-81
2023/04/20 07:34:24;;;;;;;17.60;15.90;;;;;;;;;;4938647;29;20007;-82
2023/04/20 07:36:49;;;;;;;18.95;16.95;;;;;;;;;;4940848;29;20267;-83
2023/04/20 07:39:15;;;;;;;16.25;14.65;;;;;;;;;;4954762;29;20095;-82
2023/04/20 07:41:40;;;;;;;17.75;14.50;;;;;;;;;;4929296;29;20035;-81
2023/04/20 07:44:05;;;;;;;16.63;15.00;;;;;;;;;;4924273;29;20062;-80
2023/04/20 07:46:31;;;;;;;16.75;14.65;;;;;;;;;;4930549;29;20032;-81
2023/04/20 07:48:56;;;;;;;16.67;15.02;;;;;;;;;;4931593;29;20051;-80
2023/04/20 07:51:21;;;;;;;16.95;15.35;;;;;;;;;;4950447;29;20008;-81
2023/04/20 07:53:46;;;;;;;19.30;15.25;;;;;;;;;;4947839;29;20020;-81
2023/04/20 07:56:12;;;;;;;17.55;15.60;;;;;;;;;;4942950;29;20004;-81
2023/04/20 07:58:39;;;;;;;16.42;14.93;;;;;;;;;;4952549;29;20023;-82
2023/04/20 08:01:04;;;;;;;18.35;16.42;;;;;;;;;;4935311;29;20016;-81
2023/04/20 08:03:30;;;;;;;17.10;15.70;;;;;;;;;;4944337;29;20039;-81
2023/04/20 08:05:55;;;;;;;17.73;16.02;;;;;;;;;;4936990;29;20043;-80
2023/04/20 08:08:20;;;;;;;17.05;15.27;;;;;;;;;;4942044;29;20087;-80
2023/04/20 08:10:46;;;;;;;17.75;15.93;;;;;;;;;;4947863;29;20032;-81
2023/04/20 08:13:11;;;;;;;18.27;16.40;;;;;;;;;;4935318;29;20453;-80
2023/04/20 08:15:36;;;;;;;18.00;16.30;;;;;;;;;;4929666;29;20027;-78
2023/04/20 08:18:02;;;;;;;18.40;16.25;;;;;;;;;;4918937;29;20292;-79
2023/04/20 08:20:27;;;;;;;17.63;15.32;;;;;;;;;;4940295;29;20031;-79
2023/04/20 08:22:52;;;;;;;17.98;15.98;;;;;;;;;;4943103;29;20091;-80
2023/04/20 08:25:17;;;;;;;17.88;16.08;;;;;;;;;;4923507;29;20078;-79
2023/04/20 08:27:43;;;;;;;15.90;14.55;;;;;;;;;;4939658;29;20058;-78
2023/04/20 08:30:08;;;;;;;17.30;15.60;;;;;;;;;;4928175;29;20020;-79
2023/04/20 08:32:34;;;;;;;15.95;14.45;;;;;;;;;;4927374;29;20283;-79
2023/04/20 08:34:59;;;;;;;17.00;15.30;;;;;;;;;;4928173;29;20027;-79
2023/04/20 08:37:25;;;;;;;17.60;14.77;;;;;;;;;;4927709;29;20031;-79
2023/04/20 08:39:50;;;;;;;15.15;13.55;;;;;;;;;;4929392;29;20183;-78
2023/04/20 08:42:16;;;;;;;17.63;16.13;;;;;;;;;;4927482;29;20039;-78
2023/04/20 08:44:41;;;;;;;17.80;16.05;;;;;;;;;;4911695;29;20696;-78
2023/04/20 08:47:08;;;;;;;17.38;14.73;;;;;;;;;;4928303;29;20147;-78
2023/04/20 08:49:34;;;;;;;16.63;15.05;;;;;;;;;;4911253;29;20135;-79
2023/04/20 08:51:59;;;;;;;16.15;14.75;;;;;;;;;;4928273;29;20167;-78
2023/04/20 08:54:25;;;;;;;16.42;14.73;;;;;;;;;;4912804;29;20039;-79
2023/04/20 08:56:50;;;;;;;14.70;13.38;;;;;;;;;;4928534;29;20580;-78
2023/04/20 08:59:15;;;;;;;15.40;13.90;;;;;;;;;;4933470;29;20028;-78
2023/04/20 09:01:41;;;;;;;15.23;13.63;;;;;;;;;;4929692;29;20076;-79
2023/04/20 09:04:17;;;;;;;15.98;13.63;;;;;;;;;;4928741;29;20050;-78
2023/04/20 09:06:43;;;;;;;14.77;12.73;;;;;;;;;;4928421;29;20034;-78
2023/04/20 09:09:10;;;;;;;14.25;12.73;;;;;;;;;;4927481;29;20028;-77
2023/04/20 09:11:35;;;;;;;13.05;11.85;;;;;;;;;;4929080;29;20103;-79
2023/04/20 09:14:00;;;;;;;13.85;12.48;;;;;;;;;;4929022;29;20167;-79
2023/04/20 09:16:26;;;;;;;14.20;12.85;;;;;;;;;;4910183;29;20032;-78
2023/04/20 09:18:52;;;;;;;13.77;12.25;;;;;;;;;;4929650;29;20031;-78
2023/04/20 09:21:17;;;;;;;14.48;13.18;;;;;;;;;;4910634;29;20114;-79
2023/04/20 09:23:43;;;;;;;13.23;12.15;;;;;;;;;;4928226;29;20122;-78
2023/04/20 09:26:16;;;;;;;13.05;11.82;;;;;;;;;;4930537;29;20055;-78
2023/04/20 09:28:41;;;;;;;13.57;11.90;;;;;;;;;;4927584;29;20034;-78
2023/04/20 09:31:16;;;;;;;13.13;11.77;;;;;;;;;;4928389;29;20087;-78
2023/04/20 09:33:41;;;;;;;12.45;11.32;;;;;;;;;;4921370;29;20487;-77
2023/04/20 09:36:06;;;;;;;12.73;11.43;;;;;;;;;;4925876;29;20030;-79
2023/04/20 09:38:32;;;;;;;12.32;11.32;;;;;;;;;;4920798;29;20027;-77
2023/04/20 09:41:00;;;;;;;15.60;12.52;;;;;;;;;;4924027;29;20038;-76
2023/04/20 09:43:26;;;;;;;13.23;11.95;;;;;;;;;;4917693;29;20063;-76
2023/04/20 09:45:53;;;;;;;12.20;11.02;;;;;;;;;;4924941;29;20028;-76
2023/04/20 09:48:20;;;;;;;13.00;11.70;;;;;;;;;;4924346;29;20039;-76
2023/04/20 09:50:45;;;;;;;11.27;10.30;;;;;;;;;;4920953;29;20529;-77
2023/04/20 09:53:11;;;;;;;10.68;9.88;;;;;;;;;;4922113;29;20035;-80
2023/04/20 09:55:37;;;;;;;10.73;9.77;;;;;;;;;;4921970;29;20047;-84
2023/04/20 09:58:03;;;;;;;12.32;11.05;;;;;;;;;;4922356;29;20027;-84
2023/04/20 10:00:29;;;;;;;10.73;9.73;;;;;;;;;;4905545;29;20024;-83
2023/04/20 10:02:54;;;;;;;11.40;10.50;;;;;;;;;;4923340;29;20413;-84
2023/04/20 10:05:30;;;;;;;11.50;10.43;;;;;;;;;;4922385;29;20035;-84
2023/04/20 10:08:00;;;;;;;11.65;10.55;;;;;;;;;;4921094;29;20033;-84
2023/04/20 10:10:25;;;;;;;;;;;;;;;;;;4906299;29;20383;-84
2023/04/20 10:12:52;;;;;;;11.20;10.32;;;;;;;;;;4905719;29;19926;-86
2023/04/20 10:15:17;;;;;;;11.07;10.18;;;;;;;;;;4923061;29;20794;-83
2023/04/20 10:17:43;;;;;;;11.02;10.20;;;;;;;;;;4923746;29;20020;-83
2023/04/20 10:20:19;;;;;;;11.68;10.60;;;;;;;;;;4905832;29;20095;-85
2023/04/20 10:22:45;;;;;;;11.32;10.25;;;;;;;;;;4923986;29;20075;-83
2023/04/20 10:25:16;;;;;;;10.88;9.98;;;;;;;;;;4906239;29;20119;-86
2023/04/20 10:27:51;;;;;;;11.95;10.77;;;;;;;;;;4904780;29;20039;-84
2023/04/20 10:30:16;;;;;;;11.13;10.00;;;;;;;;;;4897354;29;20058;-82
2023/04/20 10:32:42;;;;;;;12.15;11.18;;;;;;;;;;4909562;29;20102;-82
2023/04/20 10:35:12;;;;;;;10.93;9.88;;;;;;;;;;4904280;29;20028;-83
2023/04/20 10:37:48;;;;;;;9.32;8.52;;;;;;;;;;4921501;29;20561;-81
2023/04/20 10:40:13;;;;;;;9.32;8.50;;;;;;;;;;4922479;29;20507;-81
2023/04/20 10:42:42;;;;;;;10.07;9.15;;;;;;;;;;4916848;29;20078;-80
2023/04/20 10:45:08;;;;;;;8.98;8.18;;;;;;;;;;4913313;29;20043;-84
2023/04/20 10:47:36;;;;;;;9.93;9.15;;;;;;;;;;4915692;29;20039;-86
2023/04/20 10:50:08;;;;;;;11.50;10.17;;;;;;;;;;4918016;29;20052;-81
2023/04/20 10:52:35;;;;;;;12.23;9.90;;;;;;;;;;4921541;29;20039;-83
2023/04/20 10:55:00;;;;;;;9.73;8.85;;;;;;;;;;4888219;29;20039;-85
2023/04/20 10:57:26;;;;;;;9.80;8.68;;;;;;;;;;4908720;29;20485;-83
2023/04/20 10:59:51;;;;;;;8.68;7.97;;;;;;;;;;4922496;29;20792;-82
2023/04/20 11:02:16;;;;;;;8.80;8.10;;;;;;;;;;4922277;29;20394;-84
2023/04/20 11:04:42;;;;;;;9.20;8.40;;;;;;;;;;4922165;29;20481;-81
2023/04/20 11:07:08;;;;;;;8.75;8.05;;;;;;;;;;4918294;29;20031;-83
2023/04/20 11:09:33;;;;;;;10.55;9.65;;;;;;;;;;4917536;29;20030;-82
2023/04/20 11:12:00;;;;;;;12.10;11.05;;;;;;;;;;4935558;29;20115;-82
2023/04/20 11:14:26;;;;;;;10.68;9.80;;;;;;;;;;4923495;29;20079;-80
2023/04/20 11:16:52;;;;;;;11.10;10.00;;;;;;;;;;4922073;29;20032;-84
2023/04/20 11:19:26;;;;;;;10.45;9.45;;;;;;;;;;4917582;29;20074;-81
2023/04/20 11:21:51;;;;;;;10.98;10.07;;;;;;;;;;4917605;29;20036;-83
2023/04/20 11:24:18;;;;;;;11.20;9.43;;;;;;;;;;4917337;29;20110;-80
2023/04/20 11:26:44;;;;;;;10.32;9.52;;;;;;;;;;4902957;29;20034;-85
2023/04/20 11:29:09;;;;;;;10.50;9.55;;;;;;;;;;4918061;29;20024;-83
2023/04/20 11:31:35;;;;;;;9.73;8.38;;;;;;;;;;4918367;29;20023;-84
2023/04/20 11:34:01;;;;;;;10.93;9.98;;;;;;;;;;4914831;29;20450;-82
2023/04/20 11:36:28;;;;;;;10.60;9.55;;;;;;;;;;4919635;29;20031;-84
2023/04/20 11:38:54;;;;;;;11.00;10.10;;;;;;;;;;4898591;29;20031;-85
2023/04/20 11:41:20;;;;;;;10.80;9.93;;;;;;;;;;4899842;29;20072;-82
2023/04/20 11:43:45;;;;;;;15.95;10.70;;;;;;;;;;4915712;29;20494;-87
2023/04/20 11:46:15;;;;;;;10.23;9.32;;;;;;;;;;4913013;29;20031;-87
2023/04/20 11:48:41;;;;;;;10.50;9.60;;;;;;;;;;4920581;29;20115;-85
2023/04/20 11:51:06;;;;;;;10.13;9.32;;;;;;;;;;4919918;29;20143;-87
2023/04/20 11:53:31;;;;;;;9.88;9.00;;;;;;;;;;4905871;29;20046;-87
2023/04/20 11:55:56;;;;;;;9.73;8.93;;;;;;;;;;4903911;29;20020;-85
2023/04/20 11:58:22;;;;;;;10.23;8.35;;;;;;;;;;4916246;29;20437;-85
2023/04/20 12:00:47;;;;;;;10.70;9.60;;;;;;;;;;4920034;29;20124;-84
2023/04/20 12:03:12;;;;;;;9.13;8.32;;;;;;;;;;4901785;29;20031;-82
2023/04/20 12:05:38;;;;;;;10.35;9.38;;;;;;;;;;4920484;29;20062;-84
2023/04/20 12:08:03;;;;;;;9.65;8.95;;;;;;;;;;4924492;29;20039;-86
2023/04/20 12:10:29;;;;;;;8.23;5.97;;;;;;;;;;4935879;29;20028;-80
2023/04/20 12:12:59;;;;;;;5.03;4.63;;;;;;;;;;4941353;29;20028;-80
2023/04/20 12:15:26;;;;;;;3.50;3.20;;;;;;;;;;4925095;29;20044;-80
2023/04/20 12:17:52;;;;;;;3.10;2.90;;;;;;;;;;4924669;29;20028;-81
2023/04/20 12:20:17;;;;;;;3.40;2.75;;;;;;;;;;4941546;29;20023;-81
2023/04/20 12:22:43;;;;;;;2.80;2.60;;;;;;;;;;4929562;29;20043;-80
2023/04/20 12:25:15;;;;;;;3.65;3.35;;;;;;;;;;4943560;29;20008;-79
2023/04/20 12:27:40;;;;;;;4.18;3.53;;;;;;;;;;4959257;29;20089;-79
2023/04/20 12:30:08;;;;;;;4.13;3.80;;;;;;;;;;4944048;29;20008;-80
2023/04/20 12:32:33;;;;;;;5.20;4.70;;;;;;;;;;4943929;29;20031;-80
2023/04/20 12:34:59;;;;;;;4.65;4.18;;;;;;;;;;4918746;29;20168;-82
2023/04/20 12:37:26;;;;;;;4.70;4.30;;;;;;;;;;4930891;29;20016;-84
2023/04/20 12:42:39;;;;;;;5.18;4.78;;;;;;;;;;5950670;23;20032;-82
2023/04/20 12:45:14;;;;;;;4.78;4.38;;;;;;;;;;4936716;29;20048;-80
2023/04/20 12:47:46;;;;;;;5.72;5.22;;;;;;;;;;4917495;29;20054;-81
2023/04/20 12:50:15;;;;;;;5.15;4.80;;;;;;;;;;4961795;29;20031;-80
2023/04/20 12:52:41;;;;;;;6.13;5.72;;;;;;;;;;4942965;29;20020;-80
2023/04/20 12:55:08;;;;;;;6.50;6.00;;;;;;;;;;4943792;29;20034;-80
2023/04/20 12:57:37;;;;;;;7.03;6.43;;;;;;;;;;4957060;29;20071;-80
2023/04/20 13:00:05;;;;;;;6.47;6.03;;;;;;;;;;4917823;29;20028;-80
2023/04/20 13:02:31;;;;;;;7.35;6.75;;;;;;;;;;4896178;29;20036;-80
2023/04/20 13:04:57;;;;;;;5.95;5.43;;;;;;;;;;4928530;29;20530;-84
2023/04/20 13:07:24;;;;;;;6.32;5.80;;;;;;;;;;4927809;29;20053;-83
2023/04/20 13:09:49;;;;;;;6.53;6.00;;;;;;;;;;4899576;29;20509;-83
2023/04/20 13:52:18;;;;;;;3.67;2.90;;;;;;;;;;5521755;23;20027;-79
2023/04/20 14:07:39;;;;;;;2.97;1.52;;;;;;;;;;5587049;23;19907;-82
2023/04/20 14:26:04;;;;;;;3.50;2.33;;;;;;;;;;4900719;27;20720;-81
2023/04/20 14:28:29;;;;;;;2.45;1.83;;;;;;;;;;4922462;29;20032;-80
2023/04/20 14:30:55;;;;;;;2.13;1.38;;;;;;;;;;4928502;29;20047;-81
2023/04/20 14:33:20;;;;;;;2.22;1.77;;;;;;;;;;4922481;29;20027;-79
2023/04/20 14:35:46;;;;;;;2.60;1.38;;;;;;;;;;4926735;29;20455;-82
2023/04/20 14:38:11;;;;;;;1.50;1.13;;;;;;;;;;4951117;29;20083;-81
2023/04/20 14:40:36;;;;;;;1.70;1.50;;;;;;;;;;4923850;29;20038;-81
2023/04/20 14:43:02;;;;;;;2.08;1.98;;;;;;;;;;4943330;29;20083;-80
2023/04/20 14:45:27;;;;;;;1.80;1.70;;;;;;;;;;4944087;29;20018;-81
2023/04/20 14:47:53;;;;;;;2.03;1.83;;;;;;;;;;4959542;29;20012;-82
2023/04/20 14:50:19;;;;;;;1.75;1.65;;;;;;;;;;4960072;29;20026;-81
2023/04/20 14:52:47;;;;;;;2.75;2.55;;;;;;;;;;4938140;29;20083;-83
2023/04/20 14:55:12;;;;;;;2.10;2.00;;;;;;;;;;4941700;29;20036;-82
2023/04/20 14:57:38;;;;;;;2.30;1.80;;;;;;;;;;4939514;29;20008;-81
2023/04/20 15:00:04;;;;;;;2.28;2.08;;;;;;;;;;4935162;29;20035;-82
2023/04/20 15:02:30;;;;;;;3.15;2.53;;;;;;;;;;4949818;29;20124;-83
2023/04/20 15:04:57;;;;;;;2.20;2.10;;;;;;;;;;4958359;29;20011;-86
2023/04/20 15:07:23;;;;;;;3.03;2.83;;;;;;;;;;4959706;29;20031;-82
2023/04/20 15:09:48;;;;;;;2.97;2.75;;;;;;;;;;4960204;29;20067;-82
2023/04/20 15:12:15;;;;;;;3.85;2.97;;;;;;;;;;4959108;29;20012;-82
2023/04/20 15:14:40;;;;;;;2.53;2.33;;;;;;;;;;4958960;29;20008;-81
2023/04/20 15:17:05;;;;;;;3.10;2.13;;;;;;;;;;4959690;29;20028;-82
2023/04/20 15:19:34;;;;;;;2.90;2.70;;;;;;;;;;4944092;29;20072;-80
2023/04/20 15:27:23;;;;;;;3.78;3.47;;;;;;;;;;5019493;23;20265;-81
2023/04/20 15:29:48;;;;;;;6.53;3.80;;;;;;;;;;4928094;29;20040;-81
2023/04/20 15:35:38;;;;;;;4.80;4.40;;;;;;;;;;4897530;29;20113;-80